sensor_id;sensor_type;location;lat;lon;timestamp;P1;durP1;ratioP1;P2;durP2;ratioP2
79670;SDS011;69137;50.878;8.050;2023-08-30T00:02:11;4.72;;;3.70;;
79670;SDS011;69137;50.878;8.050;2023-08-30T00:04:37;5.88;;;4.00;;
79670;SDS011;69137;50.878;8.050;2023-08-30T00:07:02;7.28;;;3.33;;
79670;SDS011;69137;50.878;8.050;2023-08-30T00:09:28;6.55;;;3.88;;
79670;SDS011;69137;50.878;8.050;2023-08-30T00:11:53;5.10;;;3.50;;
79670;SDS011;69137;50.878;8.050;2023-08-30T00:14:18;5.82;;;3.83;;
79670;SDS011;69137;50.878;8.050;2023-08-30T00:16:44;8.38;;;3.60;;
79670;SDS011;69137;50.878;8.050;2023-08-30T00:19:09;5.13;;;3.75;;
79670;SDS011;69137;50.878;8.050;2023-08-30T00:21:35;5.10;;;3.65;;
79670;SDS011;69137;50.878;8.050;2023-08-30T00:24:00;5.20;;;3.72;;
79670;SDS011;69137;50.878;8.050;2023-08-30T00:26:25;9.25;;;4.03;;
79670;SDS011;69137;50.878;8.050;2023-08-30T00:28:51;4.97;;;3.70;;
79670;SDS011;69137;50.878;8.050;2023-08-30T00:31:16;6.60;;;3.88;;
79670;SDS011;69137;50.878;8.050;2023-08-30T00:33:42;5.43;;;3.78;;
79670;SDS011;69137;50.878;8.050;2023-08-30T00:36:07;6.65;;;4.22;;
79670;SDS011;69137;50.878;8.050;2023-08-30T00:38:33;6.60;;;4.50;;
79670;SDS011;69137;50.878;8.050;2023-08-30T00:40:58;6.35;;;4.30;;
79670;SDS011;69137;50.878;8.050;2023-08-30T00:43:24;7.72;;;4.97;;
79670;SDS011;69137;50.878;8.050;2023-08-30T00:45:49;7.00;;;4.88;;
79670;SDS011;69137;50.878;8.050;2023-08-30T00:48:15;6.55;;;4.65;;
79670;SDS011;69137;50.878;8.050;2023-08-30T00:50:43;7.03;;;4.22;;
79670;SDS011;69137;50.878;8.050;2023-08-30T00:53:09;6.22;;;4.07;;
79670;SDS011;69137;50.878;8.050;2023-08-30T00:55:37;5.50;;;4.03;;
79670;SDS011;69137;50.878;8.050;2023-08-30T00:58:02;4.95;;;3.60;;
79670;SDS011;69137;50.878;8.050;2023-08-30T01:00:31;5.80;;;3.75;;
79670;SDS011;69137;50.878;8.050;2023-08-30T01:02:59;7.25;;;3.70;;
79670;SDS011;69137;50.878;8.050;2023-08-30T01:05:25;6.70;;;4.18;;
79670;SDS011;69137;50.878;8.050;2023-08-30T01:07:50;6.38;;;3.85;;
79670;SDS011;69137;50.878;8.050;2023-08-30T01:10:17;6.95;;;3.78;;
79670;SDS011;69137;50.878;8.050;2023-08-30T01:12:45;6.93;;;3.80;;
79670;SDS011;69137;50.878;8.050;2023-08-30T01:15:19;5.75;;;3.85;;
79670;SDS011;69137;50.878;8.050;2023-08-30T01:17:47;6.95;;;4.22;;
79670;SDS011;69137;50.878;8.050;2023-08-30T01:20:14;6.20;;;3.75;;
79670;SDS011;69137;50.878;8.050;2023-08-30T01:27:40;5.75;;;4.15;;
79670;SDS011;69137;50.878;8.050;2023-08-30T01:30:08;7.78;;;4.25;;
79670;SDS011;69137;50.878;8.050;2023-08-30T01:32:36;6.43;;;4.50;;
79670;SDS011;69137;50.878;8.050;2023-08-30T01:35:03;5.60;;;3.70;;
79670;SDS011;69137;50.878;8.050;2023-08-30T01:37:29;7.18;;;3.65;;
79670;SDS011;69137;50.878;8.050;2023-08-30T01:39:56;5.90;;;4.32;;
79670;SDS011;69137;50.878;8.050;2023-08-30T01:42:23;8.50;;;3.90;;
79670;SDS011;69137;50.878;8.050;2023-08-30T01:44:51;4.93;;;3.78;;
79670;SDS011;69137;50.878;8.050;2023-08-30T01:47:20;7.03;;;4.47;;
79670;SDS011;69137;50.878;8.050;2023-08-30T01:49:46;6.45;;;4.25;;
79670;SDS011;69137;50.878;8.050;2023-08-30T01:52:12;5.70;;;3.92;;
79670;SDS011;69137;50.878;8.050;2023-08-30T01:54:39;7.68;;;4.85;;
79670;SDS011;69137;50.878;8.050;2023-08-30T01:57:06;11.55;;;4.63;;
79670;SDS011;69137;50.878;8.050;2023-08-30T01:59:31;5.57;;;4.22;;
79670;SDS011;69137;50.878;8.050;2023-08-30T02:01:57;8.77;;;4.60;;
79670;SDS011;69137;50.878;8.050;2023-08-30T02:04:22;7.70;;;4.47;;
79670;SDS011;69137;50.878;8.050;2023-08-30T02:07:00;7.68;;;4.65;;
79670;SDS011;69137;50.878;8.050;2023-08-30T02:12:20;5.30;;;3.45;;
79670;SDS011;69137;50.878;8.050;2023-08-30T02:14:50;6.80;;;3.72;;
79670;SDS011;69137;50.878;8.050;2023-08-30T02:17:17;5.18;;;4.00;;
79670;SDS011;69137;50.878;8.050;2023-08-30T02:19:44;7.13;;;3.97;;
79670;SDS011;69137;50.878;8.050;2023-08-30T02:22:10;6.05;;;3.78;;
79670;SDS011;69137;50.878;8.050;2023-08-30T02:24:36;5.38;;;3.83;;
79670;SDS011;69137;50.878;8.050;2023-08-30T02:27:02;5.68;;;4.22;;
79670;SDS011;69137;50.878;8.050;2023-08-30T02:29:28;6.43;;;4.50;;
79670;SDS011;69137;50.878;8.050;2023-08-30T02:31:53;8.00;;;4.28;;
79670;SDS011;69137;50.878;8.050;2023-08-30T02:34:18;6.35;;;4.47;;
79670;SDS011;69137;50.878;8.050;2023-08-30T02:36:44;8.00;;;4.22;;
79670;SDS011;69137;50.878;8.050;2023-08-30T02:39:10;9.65;;;4.25;;
79670;SDS011;69137;50.878;8.050;2023-08-30T02:41:36;8.27;;;4.50;;
79670;SDS011;69137;50.878;8.050;2023-08-30T02:44:02;5.80;;;4.10;;
79670;SDS011;69137;50.878;8.050;2023-08-30T02:46:28;5.97;;;4.50;;
79670;SDS011;69137;50.878;8.050;2023-08-30T02:48:53;5.90;;;3.90;;
79670;SDS011;69137;50.878;8.050;2023-08-30T02:51:20;5.10;;;4.10;;
79670;SDS011;69137;50.878;8.050;2023-08-30T02:53:45;7.28;;;4.63;;
79670;SDS011;69137;50.878;8.050;2023-08-30T02:56:11;5.93;;;4.30;;
79670;SDS011;69137;50.878;8.050;2023-08-30T02:58:36;5.65;;;4.30;;
79670;SDS011;69137;50.878;8.050;2023-08-30T03:01:01;5.28;;;3.38;;
79670;SDS011;69137;50.878;8.050;2023-08-30T03:03:27;8.23;;;3.70;;
79670;SDS011;69137;50.878;8.050;2023-08-30T03:05:53;4.95;;;3.78;;
79670;SDS011;69137;50.878;8.050;2023-08-30T03:08:19;7.75;;;4.13;;
79670;SDS011;69137;50.878;8.050;2023-08-30T03:10:44;6.75;;;3.90;;
79670;SDS011;69137;50.878;8.050;2023-08-30T03:13:09;8.52;;;4.68;;
79670;SDS011;69137;50.878;8.050;2023-08-30T03:15:35;9.70;;;4.60;;
79670;SDS011;69137;50.878;8.050;2023-08-30T03:18:00;7.35;;;4.18;;
79670;SDS011;69137;50.878;8.050;2023-08-30T03:20:26;7.75;;;4.40;;
79670;SDS011;69137;50.878;8.050;2023-08-30T03:22:54;6.95;;;4.40;;
79670;SDS011;69137;50.878;8.050;2023-08-30T03:25:21;8.10;;;4.88;;
79670;SDS011;69137;50.878;8.050;2023-08-30T03:27:46;5.78;;;4.07;;
79670;SDS011;69137;50.878;8.050;2023-08-30T03:30:11;5.97;;;4.07;;
79670;SDS011;69137;50.878;8.050;2023-08-30T03:32:37;6.57;;;4.10;;
79670;SDS011;69137;50.878;8.050;2023-08-30T03:35:03;5.97;;;3.70;;
79670;SDS011;69137;50.878;8.050;2023-08-30T03:37:29;4.88;;;3.35;;
79670;SDS011;69137;50.878;8.050;2023-08-30T03:39:54;6.72;;;4.28;;
79670;SDS011;69137;50.878;8.050;2023-08-30T03:42:20;6.25;;;4.45;;
79670;SDS011;69137;50.878;8.050;2023-08-30T03:44:45;5.45;;;3.90;;
79670;SDS011;69137;50.878;8.050;2023-08-30T03:47:10;11.45;;;4.55;;
79670;SDS011;69137;50.878;8.050;2023-08-30T03:49:36;6.03;;;4.05;;
79670;SDS011;69137;50.878;8.050;2023-08-30T03:52:01;5.60;;;4.25;;
79670;SDS011;69137;50.878;8.050;2023-08-30T03:54:27;7.82;;;3.80;;
79670;SDS011;69137;50.878;8.050;2023-08-30T03:56:52;6.13;;;3.95;;
79670;SDS011;69137;50.878;8.050;2023-08-30T03:59:18;8.65;;;5.05;;
79670;SDS011;69137;50.878;8.050;2023-08-30T04:01:43;6.63;;;4.43;;
79670;SDS011;69137;50.878;8.050;2023-08-30T04:04:09;6.82;;;3.75;;
79670;SDS011;69137;50.878;8.050;2023-08-30T04:06:35;8.25;;;4.43;;
79670;SDS011;69137;50.878;8.050;2023-08-30T04:09:00;5.82;;;4.32;;
79670;SDS011;69137;50.878;8.050;2023-08-30T04:11:26;6.07;;;3.65;;
79670;SDS011;69137;50.878;8.050;2023-08-30T04:13:51;6.18;;;4.10;;
79670;SDS011;69137;50.878;8.050;2023-08-30T04:16:17;6.68;;;4.00;;
79670;SDS011;69137;50.878;8.050;2023-08-30T04:18:43;6.35;;;3.70;;
79670;SDS011;69137;50.878;8.050;2023-08-30T04:21:08;5.22;;;3.60;;
79670;SDS011;69137;50.878;8.050;2023-08-30T04:23:34;7.55;;;3.92;;
79670;SDS011;69137;50.878;8.050;2023-08-30T04:26:00;5.30;;;3.50;;
79670;SDS011;69137;50.878;8.050;2023-08-30T04:28:25;6.22;;;4.10;;
79670;SDS011;69137;50.878;8.050;2023-08-30T04:30:55;5.80;;;4.18;;
79670;SDS011;69137;50.878;8.050;2023-08-30T04:33:22;5.30;;;4.15;;
79670;SDS011;69137;50.878;8.050;2023-08-30T04:35:51;8.40;;;4.13;;
79670;SDS011;69137;50.878;8.050;2023-08-30T04:38:20;6.75;;;4.43;;
79670;SDS011;69137;50.878;8.050;2023-08-30T04:40:46;14.27;;;5.00;;
79670;SDS011;69137;50.878;8.050;2023-08-30T04:43:13;6.35;;;4.25;;
79670;SDS011;69137;50.878;8.050;2023-08-30T04:45:38;6.72;;;4.75;;
79670;SDS011;69137;50.878;8.050;2023-08-30T04:48:04;16.13;;;5.90;;
79670;SDS011;69137;50.878;8.050;2023-08-30T04:50:30;9.65;;;5.07;;
79670;SDS011;69137;50.878;8.050;2023-08-30T04:52:56;10.23;;;4.97;;
79670;SDS011;69137;50.878;8.050;2023-08-30T04:55:23;10.23;;;4.38;;
79670;SDS011;69137;50.878;8.050;2023-08-30T04:57:49;7.18;;;4.82;;
79670;SDS011;69137;50.878;8.050;2023-08-30T05:00:15;8.10;;;4.95;;
79670;SDS011;69137;50.878;8.050;2023-08-30T05:02:41;6.05;;;4.75;;
79670;SDS011;69137;50.878;8.050;2023-08-30T05:05:08;8.55;;;4.68;;
79670;SDS011;69137;50.878;8.050;2023-08-30T05:07:34;13.30;;;5.13;;
79670;SDS011;69137;50.878;8.050;2023-08-30T05:10:00;7.68;;;4.60;;
79670;SDS011;69137;50.878;8.050;2023-08-30T05:12:26;8.13;;;5.18;;
79670;SDS011;69137;50.878;8.050;2023-08-30T05:14:51;6.53;;;4.30;;
79670;SDS011;69137;50.878;8.050;2023-08-30T05:17:16;6.65;;;4.93;;
79670;SDS011;69137;50.878;8.050;2023-08-30T05:19:42;6.97;;;5.30;;
79670;SDS011;69137;50.878;8.050;2023-08-30T05:22:08;6.80;;;4.35;;
79670;SDS011;69137;50.878;8.050;2023-08-30T05:24:33;6.05;;;4.53;;
79670;SDS011;69137;50.878;8.050;2023-08-30T05:26:59;6.50;;;4.20;;
79670;SDS011;69137;50.878;8.050;2023-08-30T05:29:24;10.57;;;5.05;;
79670;SDS011;69137;50.878;8.050;2023-08-30T05:31:49;7.82;;;4.88;;
79670;SDS011;69137;50.878;8.050;2023-08-30T05:34:15;11.05;;;4.82;;
79670;SDS011;69137;50.878;8.050;2023-08-30T05:36:40;5.65;;;4.30;;
79670;SDS011;69137;50.878;8.050;2023-08-30T05:39:06;7.85;;;4.80;;
79670;SDS011;69137;50.878;8.050;2023-08-30T05:41:31;8.20;;;5.00;;
79670;SDS011;69137;50.878;8.050;2023-08-30T05:43:57;8.95;;;4.80;;
79670;SDS011;69137;50.878;8.050;2023-08-30T05:46:23;6.75;;;4.25;;
79670;SDS011;69137;50.878;8.050;2023-08-30T05:48:48;7.03;;;4.78;;
79670;SDS011;69137;50.878;8.050;2023-08-30T05:51:14;6.57;;;4.50;;
79670;SDS011;69137;50.878;8.050;2023-08-30T05:53:40;6.68;;;5.13;;
79670;SDS011;69137;50.878;8.050;2023-08-30T05:56:05;7.30;;;4.93;;
79670;SDS011;69137;50.878;8.050;2023-08-30T05:58:30;7.57;;;5.30;;
79670;SDS011;69137;50.878;8.050;2023-08-30T06:00:56;7.10;;;5.28;;
79670;SDS011;69137;50.878;8.050;2023-08-30T06:03:22;7.18;;;4.63;;
79670;SDS011;69137;50.878;8.050;2023-08-30T06:05:47;6.78;;;4.32;;
79670;SDS011;69137;50.878;8.050;2023-08-30T06:08:13;6.78;;;4.40;;
79670;SDS011;69137;50.878;8.050;2023-08-30T06:10:39;8.20;;;4.90;;
79670;SDS011;69137;50.878;8.050;2023-08-30T06:13:05;7.70;;;5.20;;
79670;SDS011;69137;50.878;8.050;2023-08-30T06:15:30;7.78;;;5.15;;
79670;SDS011;69137;50.878;8.050;2023-08-30T06:17:56;8.98;;;4.88;;
79670;SDS011;69137;50.878;8.050;2023-08-30T06:20:21;10.65;;;5.72;;
79670;SDS011;69137;50.878;8.050;2023-08-30T06:22:46;7.35;;;4.93;;
79670;SDS011;69137;50.878;8.050;2023-08-30T06:25:12;10.65;;;6.07;;
79670;SDS011;69137;50.878;8.050;2023-08-30T06:27:41;8.07;;;4.85;;
79670;SDS011;69137;50.878;8.050;2023-08-30T06:30:08;6.75;;;4.93;;
79670;SDS011;69137;50.878;8.050;2023-08-30T06:32:35;7.07;;;5.15;;
79670;SDS011;69137;50.878;8.050;2023-08-30T06:35:01;8.93;;;5.60;;
79670;SDS011;69137;50.878;8.050;2023-08-30T06:37:26;7.53;;;5.00;;
79670;SDS011;69137;50.878;8.050;2023-08-30T06:39:51;9.50;;;5.57;;
79670;SDS011;69137;50.878;8.050;2023-08-30T06:42:17;8.35;;;5.65;;
79670;SDS011;69137;50.878;8.050;2023-08-30T06:44:42;11.77;;;6.40;;
79670;SDS011;69137;50.878;8.050;2023-08-30T06:47:08;11.18;;;6.97;;
79670;SDS011;69137;50.878;8.050;2023-08-30T06:49:33;12.10;;;6.38;;
79670;SDS011;69137;50.878;8.050;2023-08-30T06:51:59;10.85;;;6.47;;
79670;SDS011;69137;50.878;8.050;2023-08-30T06:54:28;9.25;;;7.15;;
79670;SDS011;69137;50.878;8.050;2023-08-30T06:56:58;10.30;;;7.00;;
79670;SDS011;69137;50.878;8.050;2023-08-30T06:59:25;10.68;;;7.10;;
79670;SDS011;69137;50.878;8.050;2023-08-30T07:01:54;11.25;;;7.82;;
79670;SDS011;69137;50.878;8.050;2023-08-30T07:04:19;14.82;;;7.40;;
79670;SDS011;69137;50.878;8.050;2023-08-30T07:06:45;12.40;;;8.35;;
79670;SDS011;69137;50.878;8.050;2023-08-30T07:09:11;12.13;;;7.80;;
79670;SDS011;69137;50.878;8.050;2023-08-30T07:11:37;9.50;;;7.10;;
79670;SDS011;69137;50.878;8.050;2023-08-30T07:14:03;11.95;;;8.02;;
79670;SDS011;69137;50.878;8.050;2023-08-30T07:16:29;11.35;;;7.47;;
79670;SDS011;69137;50.878;8.050;2023-08-30T07:18:56;12.27;;;8.32;;
79670;SDS011;69137;50.878;8.050;2023-08-30T07:21:22;12.27;;;7.70;;
79670;SDS011;69137;50.878;8.050;2023-08-30T07:23:48;12.02;;;8.43;;
79670;SDS011;69137;50.878;8.050;2023-08-30T07:26:13;13.63;;;8.65;;
79670;SDS011;69137;50.878;8.050;2023-08-30T07:28:39;15.60;;;8.80;;
79670;SDS011;69137;50.878;8.050;2023-08-30T07:31:05;11.18;;;7.93;;
79670;SDS011;69137;50.878;8.050;2023-08-30T07:33:31;10.38;;;6.40;;
79670;SDS011;69137;50.878;8.050;2023-08-30T07:35:56;12.05;;;7.25;;
79670;SDS011;69137;50.878;8.050;2023-08-30T07:38:22;17.20;;;10.13;;
79670;SDS011;69137;50.878;8.050;2023-08-30T07:40:47;16.30;;;10.48;;
79670;SDS011;69137;50.878;8.050;2023-08-30T07:43:12;22.17;;;12.02;;
79670;SDS011;69137;50.878;8.050;2023-08-30T07:45:38;16.98;;;11.05;;
79670;SDS011;69137;50.878;8.050;2023-08-30T07:48:03;17.13;;;11.75;;
79670;SDS011;69137;50.878;8.050;2023-08-30T07:50:29;20.80;;;13.05;;
79670;SDS011;69137;50.878;8.050;2023-08-30T07:52:54;16.25;;;11.57;;
79670;SDS011;69137;50.878;8.050;2023-08-30T07:55:20;21.80;;;12.60;;
79670;SDS011;69137;50.878;8.050;2023-08-30T07:57:45;17.13;;;11.20;;
79670;SDS011;69137;50.878;8.050;2023-08-30T08:00:11;19.45;;;12.82;;
79670;SDS011;69137;50.878;8.050;2023-08-30T08:02:37;17.65;;;12.07;;
79670;SDS011;69137;50.878;8.050;2023-08-30T08:05:03;17.95;;;10.18;;
79670;SDS011;69137;50.878;8.050;2023-08-30T08:07:28;19.17;;;12.25;;
79670;SDS011;69137;50.878;8.050;2023-08-30T08:09:54;20.65;;;13.50;;
79670;SDS011;69137;50.878;8.050;2023-08-30T08:12:20;16.17;;;11.32;;
79670;SDS011;69137;50.878;8.050;2023-08-30T08:14:45;21.75;;;12.80;;
79670;SDS011;69137;50.878;8.050;2023-08-30T08:17:11;19.92;;;12.88;;
79670;SDS011;69137;50.878;8.050;2023-08-30T08:19:36;19.08;;;12.90;;
79670;SDS011;69137;50.878;8.050;2023-08-30T08:22:04;19.38;;;12.23;;
79670;SDS011;69137;50.878;8.050;2023-08-30T08:24:30;20.88;;;13.43;;
79670;SDS011;69137;50.878;8.050;2023-08-30T08:26:56;19.95;;;13.30;;
79670;SDS011;69137;50.878;8.050;2023-08-30T08:29:21;19.92;;;12.38;;
79670;SDS011;69137;50.878;8.050;2023-08-30T08:31:47;17.67;;;12.05;;
79670;SDS011;69137;50.878;8.050;2023-08-30T08:34:12;15.65;;;11.70;;
79670;SDS011;69137;50.878;8.050;2023-08-30T08:36:38;18.10;;;12.02;;
79670;SDS011;69137;50.878;8.050;2023-08-30T08:39:05;16.38;;;12.18;;
79670;SDS011;69137;50.878;8.050;2023-08-30T08:41:43;17.52;;;11.18;;
79670;SDS011;69137;50.878;8.050;2023-08-30T08:44:10;16.60;;;11.02;;
79670;SDS011;69137;50.878;8.050;2023-08-30T08:46:36;19.60;;;11.85;;
79670;SDS011;69137;50.878;8.050;2023-08-30T08:49:15;15.63;;;11.02;;
79670;SDS011;69137;50.878;8.050;2023-08-30T08:51:42;19.13;;;12.43;;
79670;SDS011;69137;50.878;8.050;2023-08-30T08:54:08;15.57;;;11.32;;
79670;SDS011;69137;50.878;8.050;2023-08-30T08:56:35;14.70;;;10.85;;
79670;SDS011;69137;50.878;8.050;2023-08-30T08:59:02;13.35;;;9.82;;
79670;SDS011;69137;50.878;8.050;2023-08-30T09:01:28;17.50;;;10.20;;
79670;SDS011;69137;50.878;8.050;2023-08-30T09:03:53;13.23;;;8.82;;
79670;SDS011;69137;50.878;8.050;2023-08-30T09:06:19;10.60;;;7.72;;
79670;SDS011;69137;50.878;8.050;2023-08-30T09:08:46;11.55;;;6.97;;
79670;SDS011;69137;50.878;8.050;2023-08-30T09:11:12;11.90;;;8.15;;
79670;SDS011;69137;50.878;8.050;2023-08-30T09:13:37;16.95;;;6.93;;
79670;SDS011;69137;50.878;8.050;2023-08-30T09:16:03;8.30;;;5.18;;
79670;SDS011;69137;50.878;8.050;2023-08-30T09:18:37;7.85;;;4.95;;
79670;SDS011;69137;50.878;8.050;2023-08-30T09:21:05;8.88;;;4.75;;
79670;SDS011;69137;50.878;8.050;2023-08-30T09:23:32;6.63;;;4.68;;
79670;SDS011;69137;50.878;8.050;2023-08-30T09:25:58;7.15;;;4.55;;
79670;SDS011;69137;50.878;8.050;2023-08-30T09:28:24;8.30;;;5.32;;
79670;SDS011;69137;50.878;8.050;2023-08-30T09:30:50;6.80;;;4.38;;
79670;SDS011;69137;50.878;8.050;2023-08-30T09:33:19;7.68;;;4.68;;
79670;SDS011;69137;50.878;8.050;2023-08-30T09:35:46;5.50;;;4.00;;
79670;SDS011;69137;50.878;8.050;2023-08-30T09:38:18;5.65;;;3.78;;
79670;SDS011;69137;50.878;8.050;2023-08-30T09:40:44;7.93;;;3.47;;
79670;SDS011;69137;50.878;8.050;2023-08-30T09:43:10;5.55;;;3.53;;
79670;SDS011;69137;50.878;8.050;2023-08-30T09:45:37;5.35;;;3.00;;
79670;SDS011;69137;50.878;8.050;2023-08-30T09:48:02;6.28;;;3.13;;
79670;SDS011;69137;50.878;8.050;2023-08-30T09:50:30;5.05;;;3.42;;
79670;SDS011;69137;50.878;8.050;2023-08-30T09:53:00;6.07;;;3.35;;
79670;SDS011;69137;50.878;8.050;2023-08-30T09:55:36;4.35;;;3.03;;
79670;SDS011;69137;50.878;8.050;2023-08-30T09:58:02;5.93;;;3.45;;
79670;SDS011;69137;50.878;8.050;2023-08-30T10:00:31;5.63;;;2.67;;
79670;SDS011;69137;50.878;8.050;2023-08-30T10:05:24;4.93;;;2.40;;
79670;SDS011;69137;50.878;8.050;2023-08-30T10:07:52;5.28;;;2.50;;
79670;SDS011;69137;50.878;8.050;2023-08-30T10:10:19;4.45;;;2.30;;
79670;SDS011;69137;50.878;8.050;2023-08-30T10:12:45;4.57;;;2.30;;
79670;SDS011;69137;50.878;8.050;2023-08-30T10:15:11;5.60;;;2.55;;
79670;SDS011;69137;50.878;8.050;2023-08-30T10:17:37;4.30;;;2.40;;
79670;SDS011;69137;50.878;8.050;2023-08-30T10:20:09;3.35;;;2.10;;
79670;SDS011;69137;50.878;8.050;2023-08-30T10:22:35;4.90;;;2.47;;
79670;SDS011;69137;50.878;8.050;2023-08-30T10:25:05;4.70;;;2.60;;
79670;SDS011;69137;50.878;8.050;2023-08-30T10:27:34;3.85;;;2.50;;
79670;SDS011;69137;50.878;8.050;2023-08-30T10:30:01;3.97;;;2.70;;
79670;SDS011;69137;50.878;8.050;2023-08-30T10:32:29;4.40;;;2.50;;
79670;SDS011;69137;50.878;8.050;2023-08-30T10:34:56;6.28;;;2.17;;
79670;SDS011;69137;50.878;8.050;2023-08-30T10:37:26;6.47;;;2.55;;
79670;SDS011;69137;50.878;8.050;2023-08-30T10:39:52;5.35;;;2.53;;
79670;SDS011;69137;50.878;8.050;2023-08-30T10:42:24;4.57;;;2.40;;
79670;SDS011;69137;50.878;8.050;2023-08-30T10:44:50;3.55;;;2.63;;
79670;SDS011;69137;50.878;8.050;2023-08-30T10:47:23;6.20;;;2.60;;
79670;SDS011;69137;50.878;8.050;2023-08-30T10:49:56;3.97;;;2.50;;
79670;SDS011;69137;50.878;8.050;2023-08-30T10:52:22;5.00;;;2.58;;
79670;SDS011;69137;50.878;8.050;2023-08-30T10:54:48;4.82;;;2.78;;
79670;SDS011;69137;50.878;8.050;2023-08-30T10:57:15;5.55;;;2.45;;
79670;SDS011;69137;50.878;8.050;2023-08-30T10:59:55;4.40;;;2.28;;
79670;SDS011;69137;50.878;8.050;2023-08-30T11:02:49;8.98;;;2.90;;
79670;SDS011;69137;50.878;8.050;2023-08-30T11:05:16;3.85;;;2.50;;
79670;SDS011;69137;50.878;8.050;2023-08-30T11:07:44;4.25;;;2.45;;
79670;SDS011;69137;50.878;8.050;2023-08-30T11:10:10;4.72;;;2.80;;
79670;SDS011;69137;50.878;8.050;2023-08-30T11:12:36;4.88;;;3.38;;
79670;SDS011;69137;50.878;8.050;2023-08-30T11:15:02;4.82;;;2.60;;
79670;SDS011;69137;50.878;8.050;2023-08-30T11:17:28;4.50;;;2.50;;
79670;SDS011;69137;50.878;8.050;2023-08-30T11:19:57;3.50;;;2.40;;
79670;SDS011;69137;50.878;8.050;2023-08-30T11:22:30;3.83;;;2.70;;
79670;SDS011;69137;50.878;8.050;2023-08-30T11:24:55;5.10;;;2.72;;
79670;SDS011;69137;50.878;8.050;2023-08-30T11:27:21;4.70;;;2.97;;
79670;SDS011;69137;50.878;8.050;2023-08-30T11:29:46;4.22;;;2.63;;
79670;SDS011;69137;50.878;8.050;2023-08-30T11:32:11;3.72;;;2.72;;
79670;SDS011;69137;50.878;8.050;2023-08-30T11:34:37;6.97;;;2.67;;
79670;SDS011;69137;50.878;8.050;2023-08-30T11:37:02;4.95;;;2.85;;
79670;SDS011;69137;50.878;8.050;2023-08-30T11:39:28;4.38;;;2.72;;
79670;SDS011;69137;50.878;8.050;2023-08-30T11:41:54;4.70;;;3.03;;
79670;SDS011;69137;50.878;8.050;2023-08-30T11:44:22;4.85;;;2.63;;
79670;SDS011;69137;50.878;8.050;2023-08-30T11:46:48;6.03;;;3.50;;
79670;SDS011;69137;50.878;8.050;2023-08-30T11:49:14;4.15;;;2.92;;
79670;SDS011;69137;50.878;8.050;2023-08-30T11:51:41;5.43;;;2.97;;
79670;SDS011;69137;50.878;8.050;2023-08-30T11:54:07;3.97;;;2.55;;
79670;SDS011;69137;50.878;8.050;2023-08-30T11:56:33;5.18;;;2.90;;
79670;SDS011;69137;50.878;8.050;2023-08-30T11:59:00;4.28;;;2.60;;
79670;SDS011;69137;50.878;8.050;2023-08-30T12:01:27;3.97;;;2.60;;
79670;SDS011;69137;50.878;8.050;2023-08-30T12:03:53;5.28;;;3.05;;
79670;SDS011;69137;50.878;8.050;2023-08-30T12:06:18;5.10;;;3.03;;
79670;SDS011;69137;50.878;8.050;2023-08-30T12:08:44;5.43;;;2.95;;
79670;SDS011;69137;50.878;8.050;2023-08-30T12:11:19;5.22;;;2.92;;
79670;SDS011;69137;50.878;8.050;2023-08-30T12:13:45;6.65;;;2.97;;
79670;SDS011;69137;50.878;8.050;2023-08-30T12:16:14;4.72;;;3.17;;
79670;SDS011;69137;50.878;8.050;2023-08-30T12:18:41;4.72;;;3.22;;
79670;SDS011;69137;50.878;8.050;2023-08-30T12:21:07;6.75;;;3.22;;
79670;SDS011;69137;50.878;8.050;2023-08-30T12:23:33;5.45;;;3.40;;
79670;SDS011;69137;50.878;8.050;2023-08-30T12:26:02;5.60;;;3.50;;
79670;SDS011;69137;50.878;8.050;2023-08-30T12:28:36;7.05;;;3.15;;
79670;SDS011;69137;50.878;8.050;2023-08-30T12:31:05;3.63;;;2.67;;
79670;SDS011;69137;50.878;8.050;2023-08-30T12:33:34;5.70;;;2.60;;
79670;SDS011;69137;50.878;8.050;2023-08-30T12:36:05;6.07;;;3.28;;
79670;SDS011;69137;50.878;8.050;2023-08-30T12:38:31;9.13;;;3.83;;
79670;SDS011;69137;50.878;8.050;2023-08-30T12:40:56;4.70;;;3.15;;
79670;SDS011;69137;50.878;8.050;2023-08-30T12:43:22;4.40;;;2.75;;
79670;SDS011;69137;50.878;8.050;2023-08-30T12:45:48;4.65;;;2.95;;
79670;SDS011;69137;50.878;8.050;2023-08-30T12:48:15;5.25;;;3.00;;
79670;SDS011;69137;50.878;8.050;2023-08-30T12:50:43;5.82;;;3.10;;
79670;SDS011;69137;50.878;8.050;2023-08-30T12:53:10;4.93;;;2.70;;
79670;SDS011;69137;50.878;8.050;2023-08-30T12:55:36;5.30;;;3.20;;
79670;SDS011;69137;50.878;8.050;2023-08-30T12:58:04;4.70;;;2.88;;
79670;SDS011;69137;50.878;8.050;2023-08-30T13:00:29;6.32;;;3.60;;
79670;SDS011;69137;50.878;8.050;2023-08-30T13:02:55;6.28;;;3.35;;
79670;SDS011;69137;50.878;8.050;2023-08-30T13:05:21;5.90;;;3.40;;
79670;SDS011;69137;50.878;8.050;2023-08-30T13:07:46;5.78;;;2.90;;
79670;SDS011;69137;50.878;8.050;2023-08-30T13:10:13;5.15;;;3.22;;
79670;SDS011;69137;50.878;8.050;2023-08-30T13:12:39;7.70;;;2.85;;
79670;SDS011;69137;50.878;8.050;2023-08-30T13:15:05;7.82;;;3.10;;
79670;SDS011;69137;50.878;8.050;2023-08-30T13:17:31;8.60;;;3.58;;
79670;SDS011;69137;50.878;8.050;2023-08-30T13:19:56;6.30;;;2.53;;
79670;SDS011;69137;50.878;8.050;2023-08-30T13:22:23;3.60;;;2.50;;
79670;SDS011;69137;50.878;8.050;2023-08-30T13:24:51;3.10;;;2.17;;
79670;SDS011;69137;50.878;8.050;2023-08-30T13:27:17;4.63;;;2.85;;
79670;SDS011;69137;50.878;8.050;2023-08-30T13:29:43;4.80;;;2.63;;
79670;SDS011;69137;50.878;8.050;2023-08-30T13:32:08;3.88;;;2.83;;
79670;SDS011;69137;50.878;8.050;2023-08-30T13:34:34;6.03;;;3.15;;
79670;SDS011;69137;50.878;8.050;2023-08-30T13:36:59;6.55;;;2.88;;
79670;SDS011;69137;50.878;8.050;2023-08-30T13:39:24;6.40;;;3.47;;
79670;SDS011;69137;50.878;8.050;2023-08-30T13:41:50;6.18;;;3.40;;
79670;SDS011;69137;50.878;8.050;2023-08-30T13:44:15;5.47;;;3.42;;
79670;SDS011;69137;50.878;8.050;2023-08-30T13:46:42;7.30;;;2.72;;
79670;SDS011;69137;50.878;8.050;2023-08-30T13:49:08;5.75;;;2.78;;
79670;SDS011;69137;50.878;8.050;2023-08-30T13:51:34;4.97;;;3.20;;
79670;SDS011;69137;50.878;8.050;2023-08-30T13:53:59;4.40;;;3.20;;
79670;SDS011;69137;50.878;8.050;2023-08-30T13:56:25;5.82;;;3.30;;
79670;SDS011;69137;50.878;8.050;2023-08-30T13:58:50;4.57;;;2.95;;
79670;SDS011;69137;50.878;8.050;2023-08-30T14:01:16;4.40;;;2.95;;
79670;SDS011;69137;50.878;8.050;2023-08-30T14:03:42;8.00;;;3.70;;
79670;SDS011;69137;50.878;8.050;2023-08-30T14:06:08;4.93;;;2.95;;
79670;SDS011;69137;50.878;8.050;2023-08-30T14:08:34;6.28;;;3.60;;
79670;SDS011;69137;50.878;8.050;2023-08-30T14:10:59;4.22;;;3.22;;
79670;SDS011;69137;50.878;8.050;2023-08-30T14:13:24;5.57;;;3.55;;
79670;SDS011;69137;50.878;8.050;2023-08-30T14:15:50;4.78;;;3.55;;
79670;SDS011;69137;50.878;8.050;2023-08-30T14:18:15;6.15;;;4.28;;
79670;SDS011;69137;50.878;8.050;2023-08-30T14:20:41;8.45;;;4.30;;
79670;SDS011;69137;50.878;8.050;2023-08-30T14:23:07;8.18;;;4.85;;
79670;SDS011;69137;50.878;8.050;2023-08-30T14:25:32;7.30;;;4.45;;
79670;SDS011;69137;50.878;8.050;2023-08-30T14:27:58;5.43;;;3.60;;
79670;SDS011;69137;50.878;8.050;2023-08-30T14:30:24;6.50;;;3.83;;
79670;SDS011;69137;50.878;8.050;2023-08-30T14:32:50;6.80;;;4.82;;
79670;SDS011;69137;50.878;8.050;2023-08-30T14:35:16;6.97;;;4.10;;
79670;SDS011;69137;50.878;8.050;2023-08-30T14:37:41;6.85;;;4.10;;
79670;SDS011;69137;50.878;8.050;2023-08-30T14:40:07;7.30;;;3.80;;
79670;SDS011;69137;50.878;8.050;2023-08-30T14:42:33;7.22;;;4.45;;
79670;SDS011;69137;50.878;8.050;2023-08-30T14:44:58;5.63;;;4.10;;
79670;SDS011;69137;50.878;8.050;2023-08-30T14:47:24;7.93;;;3.88;;
79670;SDS011;69137;50.878;8.050;2023-08-30T14:49:49;9.85;;;4.13;;